createdAt,value
2019-05-22T00:02:39.092Z,47.20
2019-05-22T00:05:27.178Z,47.73
2019-05-22T00:08:10.268Z,48.80
2019-05-22T00:10:53.874Z,49.43
2019-05-22T00:13:38.953Z,46.87
2019-05-22T00:16:22.118Z,47.00
2019-05-22T00:19:05.576Z,49.30
2019-05-22T00:21:49.135Z,47.77
2019-05-22T00:24:32.233Z,45.87
2019-05-22T00:27:15.439Z,45.43
2019-05-22T00:36:14.443Z,41.53
2019-05-22T00:39:00.503Z,43.37
2019-05-22T00:41:46.191Z,41.60
2019-05-22T00:44:29.379Z,44.73
2019-05-22T00:47:14.051Z,44.97
2019-05-22T00:49:56.641Z,43.97
2019-05-22T00:55:44.554Z,43.37
2019-05-22T00:58:48.112Z,40.90
2019-05-22T01:01:49.978Z,39.20
2019-05-22T01:04:34.646Z,39.80
2019-05-22T01:07:11.975Z,36.83
2019-05-22T01:10:03.902Z,37.77
2019-05-22T01:13:00.769Z,37.60
2019-05-22T01:15:42.552Z,37.00
2019-05-22T01:18:25.794Z,37.93
2019-05-22T01:21:10.257Z,39.67
2019-05-22T01:23:53.516Z,40.63
2019-05-22T01:26:37.878Z,38.33
2019-05-22T01:29:21.682Z,37.07
2019-05-22T01:35:09.120Z,37.57
2019-05-22T01:37:53.138Z,36.20
2019-05-22T01:41:05.519Z,38.10
2019-05-22T01:43:48.537Z,31.80
2019-05-22T01:46:32.079Z,32.40
2019-05-22T01:49:17.102Z,34.57
2019-05-22T01:54:46.650Z,33.07
2019-05-22T01:57:29.457Z,34.50
2019-05-22T02:00:17.123Z,29.73
2019-05-22T02:03:00.594Z,30.07
2019-05-22T02:05:43.270Z,33.33
2019-05-22T02:08:24.959Z,32.50
2019-05-22T02:11:08.921Z,32.70
2019-05-22T02:13:50.358Z,31.33
2019-05-22T02:16:33.101Z,34.33
2019-05-22T02:19:16.427Z,39.50
2019-05-22T02:21:59.626Z,43.20
2019-05-22T02:24:42.343Z,43.33
2019-05-22T02:27:26.239Z,41.97
2019-05-22T02:30:10.236Z,44.33
2019-05-22T02:32:52.535Z,42.97
2019-05-22T02:35:36.503Z,45.60
2019-05-22T02:38:18.830Z,48.03
2019-05-22T02:41:02.285Z,48.20
2019-05-22T02:43:44.115Z,45.43
2019-05-22T02:46:25.979Z,40.60
2019-05-22T02:49:09.661Z,42.43
2019-05-22T02:51:52.014Z,42.23
2019-05-22T02:54:38.043Z,40.70
2019-05-22T02:57:23.050Z,42.17
2019-05-22T03:00:07.656Z,41.47
2019-05-22T03:02:53.612Z,37.57
2019-05-22T03:05:40.136Z,37.30
2019-05-22T03:08:21.783Z,35.73
2019-05-22T03:11:03.833Z,37.50
2019-05-22T03:13:45.797Z,37.83
2019-05-22T03:16:28.175Z,39.10
2019-05-22T03:19:10.021Z,36.77
2019-05-22T03:21:52.709Z,40.60
2019-05-22T03:24:36.577Z,41.93
2019-05-22T03:27:19.063Z,44.20
2019-05-22T03:30:01.032Z,44.03
2019-05-22T03:32:44.466Z,52.50
2019-05-22T03:35:28.122Z,50.87
2019-05-22T03:38:10.628Z,46.27
2019-05-22T03:40:53.007Z,48.17
2019-05-22T03:43:35.309Z,51.93
2019-05-22T03:46:17.974Z,52.67
2019-05-22T03:48:59.504Z,52.77
2019-05-22T03:51:41.503Z,51.20
2019-05-22T03:54:24.130Z,54.87
2019-05-22T03:57:06.718Z,58.53
2019-05-22T03:59:49.176Z,52.80
2019-05-22T04:02:31.694Z,56.63
2019-05-22T04:05:14.699Z,54.33
2019-05-22T04:07:58.488Z,62.47
2019-05-22T04:10:41.376Z,58.80
2019-05-22T04:16:13.730Z,57.33
2019-05-22T04:18:57.066Z,61.80
2019-05-22T04:21:41.248Z,59.63
2019-05-22T04:24:23.467Z,61.63
2019-05-22T04:27:06.777Z,53.77
2019-05-22T04:29:48.645Z,49.57
2019-05-22T04:32:34.930Z,49.17
2019-05-22T04:35:19.346Z,44.27
2019-05-22T04:38:01.263Z,37.73
2019-05-22T04:43:34.876Z,33.33
2019-05-22T04:46:19.117Z,30.67
2019-05-22T04:49:00.565Z,30.13
2019-05-22T04:51:42.714Z,28.13
2019-05-22T04:54:13.041Z,26.47
2019-05-22T04:56:56.027Z,26.00
2019-05-22T04:59:37.702Z,27.67
2019-05-22T05:02:20.171Z,29.33
2019-05-22T05:05:05.295Z,24.50
2019-05-22T05:07:47.523Z,25.17
2019-05-22T05:10:30.500Z,27.00
2019-05-22T05:13:12.789Z,25.63
2019-05-22T05:15:54.706Z,24.33
2019-05-22T05:18:39.795Z,23.47
2019-05-22T05:21:23.710Z,23.03
2019-05-22T05:24:07.961Z,23.07
2019-05-22T05:26:54.664Z,22.80
2019-05-22T05:29:38.937Z,24.03
2019-05-22T05:32:22.024Z,22.40
2019-05-22T05:35:05.919Z,23.13
2019-05-22T05:37:48.337Z,21.03
2019-05-22T05:40:36.116Z,20.10
2019-05-22T05:43:21.824Z,22.63
2019-05-22T05:46:04.170Z,22.23
2019-05-22T05:48:47.416Z,22.10
2019-05-22T05:51:30.229Z,20.00
2019-05-22T05:57:16.003Z,19.73
2019-05-22T05:59:58.426Z,21.67
2019-05-22T06:02:55.679Z,22.17
2019-05-22T06:05:25.446Z,21.70
2019-05-22T06:08:07.138Z,21.30
2019-05-22T06:10:49.324Z,21.53
2019-05-22T06:13:32.108Z,20.13
2019-05-22T06:16:17.667Z,24.43
2019-05-22T06:18:59.686Z,22.47
2019-05-22T06:21:44.393Z,21.03
2019-05-22T06:24:28.040Z,21.00
2019-05-22T06:27:32.790Z,21.70
2019-05-22T06:30:18.033Z,20.70
2019-05-22T06:33:06.036Z,18.07
2019-05-22T06:35:48.233Z,23.37
2019-05-22T06:38:30.274Z,21.13
2019-05-22T06:41:13.655Z,19.10
2019-05-22T06:43:56.283Z,23.57
2019-05-22T06:46:38.607Z,22.17
2019-05-22T06:49:21.568Z,25.33
2019-05-22T06:52:03.119Z,25.27
2019-05-22T06:54:45.164Z,27.53
2019-05-22T06:57:45.010Z,26.20
2019-05-22T07:00:27.191Z,23.87
2019-05-22T07:03:10.602Z,23.77
2019-05-22T07:05:53.220Z,23.90
2019-05-22T07:08:34.612Z,21.97
2019-05-22T07:11:05.945Z,23.27
2019-05-22T07:13:39.127Z,23.83
2019-05-22T07:16:10.237Z,24.00
2019-05-22T07:18:42.478Z,23.57
2019-05-22T07:21:13.160Z,22.80
2019-05-22T07:23:43.668Z,21.87
2019-05-22T07:26:14.202Z,25.13
2019-05-22T07:28:44.737Z,26.50
2019-05-22T07:31:15.246Z,22.40
2019-05-22T07:33:46.364Z,22.20
2019-05-22T07:36:19.467Z,23.90
2019-05-22T07:38:50.506Z,23.23
2019-05-22T07:41:21.366Z,24.50
2019-05-22T07:43:51.652Z,25.13
2019-05-22T07:46:22.846Z,31.07
2019-05-22T07:48:54.244Z,21.07
2019-05-22T07:51:25.912Z,23.53
2019-05-22T07:53:57.112Z,24.63
2019-05-22T07:56:29.111Z,21.43
2019-05-22T07:59:03.806Z,20.87
2019-05-22T08:01:35.617Z,22.23
2019-05-22T08:04:06.249Z,22.50
2019-05-22T08:06:37.000Z,22.40
2019-05-22T08:09:10.198Z,21.70
2019-05-22T08:11:40.660Z,24.60
2019-05-22T08:14:12.998Z,29.67
2019-05-22T08:16:43.440Z,20.97
2019-05-22T08:19:13.849Z,24.77
2019-05-22T08:21:44.779Z,24.63
2019-05-22T08:24:15.653Z,21.90
2019-05-22T08:26:54.319Z,23.77
2019-05-22T08:29:20.766Z,22.73
2019-05-22T08:31:53.316Z,23.83
2019-05-22T08:34:25.638Z,23.07
2019-05-22T08:36:56.638Z,22.13
2019-05-22T08:39:28.306Z,22.03
2019-05-22T08:41:58.636Z,23.50
2019-05-22T08:44:29.814Z,21.03
2019-05-22T08:47:01.393Z,24.43
2019-05-22T08:49:31.836Z,21.50
2019-05-22T08:52:02.631Z,23.17
2019-05-22T08:54:34.696Z,22.30
2019-05-22T08:57:08.651Z,24.53
2019-05-22T08:59:39.310Z,24.10
2019-05-22T09:02:11.916Z,23.40
2019-05-22T09:04:42.483Z,22.50
2019-05-22T09:07:13.035Z,21.90
2019-05-22T09:09:43.584Z,20.30
2019-05-22T09:12:14.498Z,21.97
2019-05-22T09:14:45.355Z,20.67
2019-05-22T09:17:17.937Z,22.37
2019-05-22T09:19:48.645Z,21.90
2019-05-22T09:22:19.077Z,23.07
2019-05-22T09:24:50.610Z,21.07
2019-05-22T09:27:22.288Z,25.90
2019-05-22T09:29:54.406Z,24.90
2019-05-22T09:32:37.931Z,21.47
2019-05-22T09:35:09.860Z,22.80
2019-05-22T09:37:40.594Z,22.07
2019-05-22T09:40:12.849Z,21.07
2019-05-22T09:42:43.301Z,21.53
2019-05-22T09:45:15.061Z,21.87
2019-05-22T09:47:45.592Z,22.73
2019-05-22T09:50:17.670Z,24.07
2019-05-22T09:52:57.799Z,25.60
2019-05-22T09:55:20.890Z,24.53
2019-05-22T09:57:51.427Z,26.63
2019-05-22T10:00:23.216Z,25.27
2019-05-22T10:02:54.724Z,27.07
2019-05-22T10:05:25.181Z,27.03
2019-05-22T10:08:00.912Z,27.20
2019-05-22T10:10:28.313Z,26.13
2019-05-22T10:12:58.926Z,24.10
2019-05-22T10:15:29.734Z,26.27
2019-05-22T10:18:00.746Z,23.40
2019-05-22T10:20:31.071Z,21.10
2019-05-22T10:23:14.615Z,22.47
2019-05-22T10:25:34.697Z,22.13
2019-05-22T10:28:06.434Z,23.13
2019-05-22T10:30:37.126Z,22.10
2019-05-22T10:33:08.434Z,24.63
2019-05-22T10:35:40.602Z,23.30
2019-05-22T10:38:11.061Z,24.93
2019-05-22T10:40:43.020Z,29.27
2019-05-22T10:43:13.295Z,23.37
2019-05-22T10:45:43.849Z,24.33
2019-05-22T10:48:14.375Z,24.83
2019-05-22T10:50:44.739Z,23.73
2019-05-22T10:53:30.698Z,23.83
2019-05-22T10:55:48.387Z,24.30
2019-05-22T10:58:20.253Z,23.37
2019-05-22T11:00:50.788Z,23.53
2019-05-22T11:03:21.099Z,22.83
2019-05-22T11:06:06.614Z,21.73
2019-05-22T11:08:24.655Z,20.73
2019-05-22T11:10:55.038Z,21.47
2019-05-22T11:13:25.529Z,19.50
2019-05-22T11:15:56.777Z,21.30
2019-05-22T11:18:27.738Z,20.90
2019-05-22T11:20:59.093Z,19.93
2019-05-22T11:23:29.552Z,21.43
2019-05-22T11:26:01.360Z,20.63
2019-05-22T11:28:32.570Z,20.57
2019-05-22T11:31:07.222Z,19.67
2019-05-22T11:33:40.423Z,18.40
2019-05-22T11:36:13.058Z,18.90
2019-05-22T11:38:43.834Z,20.50
2019-05-22T11:41:15.958Z,18.57
2019-05-22T11:43:46.873Z,17.70
2019-05-22T11:46:18.078Z,18.77
2019-05-22T11:48:48.810Z,21.13
2019-05-22T11:51:22.040Z,20.37
2019-05-22T11:54:08.233Z,21.10
2019-05-22T11:56:27.355Z,20.87
2019-05-22T11:58:58.963Z,21.17
2019-05-22T12:01:29.972Z,18.20
2019-05-22T12:04:01.036Z,18.80
2019-05-22T12:06:32.191Z,19.87
2019-05-22T12:09:04.372Z,19.63
2019-05-22T12:11:34.926Z,17.73
2019-05-22T12:14:07.714Z,18.73
2019-05-22T12:16:38.950Z,19.63
2019-05-22T12:19:10.354Z,17.37
2019-05-22T12:21:41.292Z,17.20
2019-05-22T12:24:25.943Z,17.47
2019-05-22T12:26:44.114Z,16.63
2019-05-22T12:29:17.164Z,17.00
2019-05-22T12:31:46.529Z,17.07
2019-05-22T12:34:18.443Z,18.73
2019-05-22T12:36:51.488Z,19.37
2019-05-22T12:39:23.543Z,17.47
2019-05-22T12:41:54.571Z,16.70
2019-05-22T12:44:25.621Z,15.00
2019-05-22T12:46:56.154Z,15.83
2019-05-22T12:49:28.835Z,14.27
2019-05-22T12:52:00.496Z,14.30
2019-05-22T12:54:45.370Z,14.20
2019-05-22T12:57:05.095Z,14.50
2019-05-22T12:59:36.048Z,15.97
2019-05-22T13:02:07.480Z,15.23
2019-05-22T13:04:38.891Z,15.20
2019-05-22T13:07:09.710Z,13.97
2019-05-22T13:09:40.911Z,12.53
2019-05-22T13:12:12.946Z,12.77
2019-05-22T13:14:43.430Z,11.17
2019-05-22T13:17:15.672Z,13.27
2019-05-22T13:19:47.939Z,11.27
2019-05-22T13:22:20.390Z,12.03
2019-05-22T13:24:50.648Z,16.13
2019-05-22T13:27:22.506Z,12.13
2019-05-22T13:29:53.800Z,11.87
2019-05-22T13:32:24.105Z,12.67
2019-05-22T13:34:55.815Z,12.00
2019-05-22T13:37:26.162Z,11.90
2019-05-22T13:39:58.396Z,12.93
2019-05-22T13:42:29.035Z,12.13
2019-05-22T13:44:59.486Z,12.73
2019-05-22T13:47:29.911Z,12.90
2019-05-22T13:50:00.619Z,12.40
2019-05-22T13:52:31.622Z,11.70
2019-05-22T13:55:02.091Z,12.80
2019-05-22T13:57:32.394Z,13.37
2019-05-22T14:00:02.787Z,12.53
2019-05-22T14:02:33.376Z,14.60
2019-05-22T14:05:03.961Z,13.50
2019-05-22T14:07:34.377Z,13.77
2019-05-22T14:10:05.443Z,12.13
2019-05-22T14:12:35.843Z,13.53
2019-05-22T14:15:06.772Z,13.67
2019-05-22T14:17:39.344Z,13.47
2019-05-22T14:20:10.671Z,13.30
2019-05-22T14:22:43.101Z,13.70
2019-05-22T14:25:14.690Z,12.17
2019-05-22T14:27:45.061Z,12.83
2019-05-22T14:30:16.355Z,12.47
2019-05-22T14:32:47.341Z,12.20
2019-05-22T14:35:19.262Z,11.27
2019-05-22T14:37:50.472Z,12.17
2019-05-22T14:40:22.402Z,10.63
2019-05-22T14:42:54.008Z,12.30
2019-05-22T14:45:24.673Z,11.03
2019-05-22T14:47:56.719Z,10.33
2019-05-22T14:50:32.648Z,12.10
2019-05-22T14:53:02.431Z,10.73
2019-05-22T14:55:34.721Z,11.77
2019-05-22T14:58:06.822Z,11.17
2019-05-22T15:00:38.958Z,12.63
2019-05-22T15:03:09.942Z,10.10
2019-05-22T15:05:40.414Z,9.30
2019-05-22T15:08:11.341Z,8.83
2019-05-22T15:10:41.905Z,10.53
2019-05-22T15:13:12.405Z,9.67
2019-05-22T15:15:42.869Z,9.40
2019-05-22T15:18:13.409Z,9.37
2019-05-22T15:21:12.012Z,8.20
2019-05-22T15:23:44.440Z,8.70
2019-05-22T15:26:14.774Z,8.83
2019-05-22T15:28:45.772Z,7.40
2019-05-22T15:31:16.605Z,9.00
2019-05-22T15:33:47.063Z,8.43
2019-05-22T15:36:20.859Z,9.53
2019-05-22T15:38:51.843Z,9.50
2019-05-22T15:41:22.210Z,8.40
2019-05-22T15:43:54.831Z,8.93
2019-05-22T15:46:27.328Z,8.43
2019-05-22T15:48:59.440Z,7.60
2019-05-22T15:51:32.857Z,9.73
2019-05-22T15:54:06.380Z,9.80
2019-05-22T15:56:40.053Z,9.10
2019-05-22T15:59:12.769Z,7.67
2019-05-22T16:01:45.707Z,7.50
2019-05-22T16:04:18.241Z,8.93
2019-05-22T16:06:50.676Z,8.47
2019-05-22T16:09:23.574Z,9.03
2019-05-22T16:12:01.730Z,9.10
2019-05-22T16:14:33.163Z,8.83
2019-05-22T16:17:05.888Z,8.53
2019-05-22T16:19:36.727Z,9.60
2019-05-22T16:22:09.255Z,8.73
2019-05-22T16:24:40.284Z,10.23
2019-05-22T16:27:14.200Z,9.80
2019-05-22T16:29:44.816Z,9.07
2019-05-22T16:32:17.709Z,10.37
2019-05-22T16:34:49.032Z,10.47
2019-05-22T16:37:20.425Z,8.90
2019-05-22T16:39:51.704Z,10.67
2019-05-22T16:42:23.254Z,9.37
2019-05-22T16:44:53.683Z,9.83
2019-05-22T16:47:26.299Z,9.67
2019-05-22T16:49:56.769Z,8.93
2019-05-22T16:52:28.595Z,9.67
2019-05-22T16:55:00.434Z,9.93
2019-05-22T16:57:32.866Z,11.13
2019-05-22T17:00:06.019Z,10.93
2019-05-22T17:02:37.839Z,12.80
2019-05-22T17:05:10.975Z,9.70
2019-05-22T17:07:42.001Z,10.47
2019-05-22T17:10:14.367Z,10.60
2019-05-22T17:12:46.486Z,10.43
2019-05-22T17:15:18.893Z,10.13
2019-05-22T17:17:49.654Z,10.03
2019-05-22T17:20:23.892Z,9.33
2019-05-22T17:22:59.212Z,9.70
2019-05-22T17:25:31.167Z,9.37
2019-05-22T17:28:02.445Z,10.63
2019-05-22T17:30:34.792Z,10.70
2019-05-22T17:33:07.013Z,11.53
2019-05-22T17:35:38.699Z,10.00
2019-05-22T17:38:10.155Z,10.30
2019-05-22T17:40:41.412Z,11.67
2019-05-22T17:43:13.405Z,10.33
2019-05-22T17:45:46.283Z,10.70
2019-05-22T17:48:18.963Z,10.67
2019-05-22T17:50:50.030Z,11.37
2019-05-22T17:53:20.847Z,10.50
2019-05-22T17:55:51.513Z,9.83
2019-05-22T17:58:25.715Z,10.63
2019-05-22T18:00:56.155Z,9.77
2019-05-22T18:03:26.783Z,10.30
2019-05-22T18:05:58.662Z,9.07
2019-05-22T18:08:29.320Z,10.27
2019-05-22T18:11:01.035Z,10.53
2019-05-22T18:13:31.957Z,9.33
2019-05-22T18:16:04.788Z,8.03
2019-05-22T18:18:36.542Z,9.73
2019-05-22T18:21:10.563Z,8.63
2019-05-22T18:23:44.607Z,7.63
2019-05-22T18:26:15.245Z,9.53
2019-05-22T18:28:45.850Z,7.70
2019-05-22T18:31:17.983Z,8.93
2019-05-22T18:33:48.644Z,9.50
2019-05-22T18:36:19.455Z,7.83
2019-05-22T18:38:49.987Z,6.80
2019-05-22T18:41:20.414Z,7.30
2019-05-22T18:43:51.217Z,6.87
2019-05-22T18:46:21.747Z,6.77
2019-05-22T18:48:52.577Z,6.37
2019-05-22T18:51:23.117Z,7.47
2019-05-22T18:53:53.695Z,6.50
2019-05-22T18:56:29.571Z,6.37
2019-05-22T18:59:01.813Z,6.87
2019-05-22T19:01:32.659Z,7.67
2019-05-22T19:04:03.467Z,7.10
2019-05-22T19:06:34.008Z,7.60
2019-05-22T19:09:09.856Z,8.77
2019-05-22T19:11:40.648Z,8.47
2019-05-22T19:14:11.258Z,7.03
2019-05-22T19:16:42.095Z,8.60
2019-05-22T19:19:14.665Z,8.23
2019-05-22T19:21:46.641Z,7.07
2019-05-22T19:24:17.135Z,8.57
2019-05-22T19:26:49.141Z,6.97
2019-05-22T19:29:19.830Z,11.67
2019-05-22T19:31:50.348Z,9.10
2019-05-22T19:34:21.318Z,6.87
2019-05-22T19:36:51.965Z,6.70
2019-05-22T19:39:24.020Z,7.73
2019-05-22T19:42:02.869Z,10.37
2019-05-22T19:44:27.348Z,7.60
2019-05-22T19:46:57.676Z,7.13
2019-05-22T19:49:29.654Z,7.67
2019-05-22T19:52:01.202Z,7.80
2019-05-22T19:54:31.553Z,7.47
2019-05-22T19:57:01.980Z,7.93
2019-05-22T19:59:33.238Z,8.23
2019-05-22T20:02:04.693Z,8.97
2019-05-22T20:04:35.676Z,8.90
2019-05-22T20:07:08.310Z,10.00
2019-05-22T20:09:39.566Z,9.40
2019-05-22T20:12:12.012Z,9.83
2019-05-22T20:14:44.709Z,9.27
2019-05-22T20:17:14.762Z,12.87
2019-05-22T20:19:46.797Z,11.77
2019-05-22T20:22:18.064Z,10.70
2019-05-22T20:24:49.106Z,13.00
2019-05-22T20:27:20.035Z,10.90
2019-05-22T20:29:50.937Z,10.63
2019-05-22T20:32:22.212Z,12.23
2019-05-22T20:34:52.860Z,11.60
2019-05-22T20:37:23.707Z,11.37
2019-05-22T20:39:54.206Z,12.60
2019-05-22T20:42:24.573Z,14.93
2019-05-22T20:44:59.329Z,12.27
2019-05-22T20:47:31.441Z,12.60
2019-05-22T20:50:04.250Z,16.40
2019-05-22T20:52:36.371Z,13.00
2019-05-22T20:55:07.614Z,13.13
2019-05-22T20:57:38.163Z,13.17
2019-05-22T21:00:10.114Z,15.03
2019-05-22T21:02:42.826Z,14.40
2019-05-22T21:05:15.558Z,13.10
2019-05-22T21:07:51.389Z,12.70
2019-05-22T21:10:24.746Z,15.23
2019-05-22T21:12:57.418Z,14.67
2019-05-22T21:15:30.914Z,15.40
2019-05-22T21:18:02.415Z,15.73
2019-05-22T21:20:33.917Z,15.53
2019-05-22T21:23:06.225Z,14.93
2019-05-22T21:25:37.306Z,16.30
2019-05-22T21:28:13.770Z,15.47
2019-05-22T21:30:45.643Z,14.87
2019-05-22T21:33:18.333Z,15.37
2019-05-22T21:35:50.091Z,15.23
2019-05-22T21:38:23.342Z,15.63
2019-05-22T21:40:56.808Z,14.93
2019-05-22T21:43:35.527Z,14.80
2019-05-22T21:46:07.838Z,16.70
2019-05-22T21:48:42.995Z,16.97
2019-05-22T21:51:14.073Z,17.27
2019-05-22T21:53:44.424Z,15.80
2019-05-22T21:56:14.907Z,15.50
2019-05-22T21:58:45.553Z,15.27
2019-05-22T22:01:28.328Z,16.23
2019-05-22T22:04:05.540Z,15.27
2019-05-22T22:06:36.200Z,15.77
2019-05-22T22:09:08.928Z,16.93
2019-05-22T22:11:42.740Z,15.53
2019-05-22T22:14:12.623Z,15.60
2019-05-22T22:16:44.902Z,16.23
2019-05-22T22:19:17.699Z,15.87
2019-05-22T22:21:49.514Z,18.60
2019-05-22T22:24:20.053Z,14.73
2019-05-22T22:26:52.186Z,16.47
2019-05-22T22:29:23.008Z,15.77
2019-05-22T22:31:55.207Z,16.67
2019-05-22T22:34:36.170Z,17.00
2019-05-22T22:37:06.855Z,17.50
2019-05-22T22:39:37.891Z,16.30
2019-05-22T22:42:10.532Z,16.53
2019-05-22T22:44:42.231Z,17.40
2019-05-22T22:47:17.886Z,16.50
2019-05-22T22:50:03.960Z,17.57
2019-05-22T22:52:35.788Z,17.60
2019-05-22T22:55:13.146Z,16.77
2019-05-22T22:57:44.793Z,16.83
2019-05-22T23:00:18.648Z,20.47
2019-05-22T23:02:49.766Z,18.20
2019-05-22T23:05:20.425Z,18.87
2019-05-22T23:07:51.264Z,17.67
2019-05-22T23:10:23.090Z,21.27
2019-05-22T23:12:55.612Z,18.03
2019-05-22T23:15:27.735Z,18.17
2019-05-22T23:18:00.319Z,17.83
2019-05-22T23:20:32.129Z,15.87
2019-05-22T23:23:01.024Z,17.83
2019-05-22T23:25:34.262Z,18.43
2019-05-22T23:28:05.638Z,16.97
2019-05-22T23:30:36.833Z,16.57
2019-05-22T23:33:08.624Z,17.33
2019-05-22T23:35:51.986Z,16.30
2019-05-22T23:38:22.416Z,18.00
2019-05-22T23:40:55.703Z,15.83
2019-05-22T23:43:27.915Z,17.73
2019-05-22T23:46:01.673Z,17.30
2019-05-22T23:48:36.114Z,16.23
2019-05-22T23:51:07.356Z,16.60
2019-05-22T23:53:39.075Z,17.43
2019-05-22T23:56:10.779Z,17.67
2019-05-22T23:58:52.408Z,18.60
